createdAt,value
2022-10-04T00:00:08.017Z,0
2022-10-04T00:01:08.011Z,0
2022-10-04T00:02:08.053Z,0
2022-10-04T00:03:08.040Z,0
2022-10-04T00:04:08.021Z,0
2022-10-04T00:05:08.007Z,0
2022-10-04T00:06:08.037Z,0
2022-10-04T00:07:08.015Z,0
2022-10-04T00:08:08.005Z,0
2022-10-04T00:09:08.021Z,0
2022-10-04T00:10:08.004Z,0
2022-10-04T00:11:08.015Z,0
2022-10-04T00:12:08.014Z,0
2022-10-04T00:13:08.013Z,0
2022-10-04T00:14:08.018Z,0
2022-10-04T00:15:08.011Z,0
2022-10-04T00:16:08.092Z,0
2022-10-04T00:17:08.019Z,0
2022-10-04T00:18:08.014Z,0
2022-10-04T00:19:08.013Z,0
2022-10-04T00:20:08.014Z,0
2022-10-04T00:21:08.011Z,0
2022-10-04T00:22:08.047Z,0
2022-10-04T00:23:08.017Z,0
2022-10-04T00:24:08.025Z,0
2022-10-04T00:25:08.027Z,0
2022-10-04T00:26:08.027Z,0
2022-10-04T00:27:08.018Z,0
2022-10-04T00:28:08.091Z,0
2022-10-04T00:29:08.019Z,0
2022-10-04T00:30:08.014Z,0
2022-10-04T00:31:08.043Z,0
2022-10-04T00:32:08.021Z,0
2022-10-04T00:33:08.020Z,0
2022-10-04T00:34:08.025Z,0
2022-10-04T00:35:08.019Z,0
2022-10-04T00:36:08.020Z,0
2022-10-04T00:37:08.022Z,0
2022-10-04T00:38:08.047Z,0
2022-10-04T00:39:08.024Z,0
2022-10-04T00:40:08.023Z,0
2022-10-04T00:41:08.027Z,0
2022-10-04T00:42:08.025Z,0
2022-10-04T00:43:08.024Z,0
2022-10-04T00:44:08.039Z,0
2022-10-04T00:45:08.026Z,0
2022-10-04T00:46:08.070Z,0
2022-10-04T00:47:08.021Z,0
2022-10-04T00:48:08.023Z,0
2022-10-04T00:49:08.035Z,0
2022-10-04T00:50:08.022Z,0
2022-10-04T00:51:08.022Z,0
2022-10-04T00:52:08.034Z,0
2022-10-04T00:53:08.028Z,0
2022-10-04T00:54:08.051Z,0
2022-10-04T00:55:08.028Z,0
2022-10-04T00:56:08.028Z,0
2022-10-04T00:57:08.029Z,0
2022-10-04T00:58:08.031Z,0
2022-10-04T00:59:08.030Z,0
2022-10-04T01:00:08.032Z,0
2022-10-04T01:01:08.097Z,0
2022-10-04T01:02:08.129Z,0
2022-10-04T01:03:08.028Z,0
2022-10-04T01:04:08.034Z,0
2022-10-04T01:05:08.034Z,0
2022-10-04T01:06:08.039Z,0
2022-10-04T01:07:08.026Z,0
2022-10-04T01:08:08.034Z,0
2022-10-04T01:09:08.040Z,0
2022-10-04T01:10:08.064Z,0
2022-10-04T01:11:08.030Z,0
2022-10-04T01:12:08.037Z,0
2022-10-04T01:13:08.041Z,0
2022-10-04T01:14:08.031Z,0
2022-10-04T01:15:08.032Z,0
2022-10-04T01:16:08.076Z,0
2022-10-04T01:17:08.038Z,0
2022-10-04T01:18:09.390Z,0
2022-10-04T01:19:08.033Z,0
2022-10-04T01:20:08.037Z,0
2022-10-04T01:21:08.037Z,0
2022-10-04T01:22:08.039Z,0
2022-10-04T01:23:08.033Z,0
2022-10-04T01:24:08.036Z,0
2022-10-04T01:25:08.037Z,0
2022-10-04T01:26:08.056Z,0
2022-10-04T01:27:08.044Z,0
2022-10-04T01:28:08.086Z,0
2022-10-04T01:29:08.051Z,0
2022-10-04T01:30:08.045Z,0
2022-10-04T01:31:08.092Z,0
2022-10-04T01:32:08.039Z,0
2022-10-04T01:33:08.058Z,0
2022-10-04T01:34:08.046Z,0
2022-10-04T01:35:08.042Z,0
2022-10-04T01:36:08.045Z,0
2022-10-04T01:37:08.042Z,0
2022-10-04T01:38:08.046Z,0
2022-10-04T01:39:08.045Z,0
2022-10-04T01:40:08.050Z,0
2022-10-04T01:41:08.051Z,0
2022-10-04T01:42:08.064Z,0
2022-10-04T01:43:08.049Z,0
2022-10-04T01:44:08.046Z,0
2022-10-04T01:45:08.043Z,0
2022-10-04T01:46:08.090Z,0
2022-10-04T01:47:08.046Z,0
2022-10-04T01:48:08.054Z,0
2022-10-04T01:49:08.038Z,0
2022-10-04T01:50:09.679Z,0
2022-10-04T01:51:08.054Z,0
2022-10-04T01:52:08.060Z,0
2022-10-04T01:53:08.057Z,0
2022-10-04T01:54:08.055Z,0
2022-10-04T01:55:08.049Z,0
2022-10-04T01:56:08.050Z,0
2022-10-04T01:57:08.063Z,0
2022-10-04T01:58:08.089Z,0
2022-10-04T01:59:08.057Z,0
2022-10-04T02:00:08.066Z,0
2022-10-04T02:01:08.101Z,0
2022-10-04T02:02:08.058Z,0
2022-10-04T02:03:08.065Z,0
2022-10-04T02:04:08.134Z,0
2022-10-04T02:05:08.133Z,0
2022-10-04T02:06:08.056Z,0
2022-10-04T02:07:08.060Z,0
2022-10-04T02:08:08.065Z,0
2022-10-04T02:09:08.066Z,0
2022-10-04T02:10:08.069Z,0
2022-10-04T02:11:08.070Z,0
2022-10-04T02:12:08.074Z,0
2022-10-04T02:13:08.068Z,0
2022-10-04T02:14:08.091Z,0
2022-10-04T02:15:08.074Z,0
2022-10-04T02:16:08.112Z,0
2022-10-04T02:17:08.077Z,0
2022-10-04T02:18:08.068Z,0
2022-10-04T02:19:08.070Z,0
2022-10-04T02:20:08.073Z,0
2022-10-04T02:21:08.071Z,0
2022-10-04T02:22:08.076Z,0
2022-10-04T02:23:08.060Z,0
2022-10-04T02:24:08.073Z,0
2022-10-04T02:25:08.070Z,0
2022-10-04T02:26:08.074Z,0
2022-10-04T02:27:08.070Z,0
2022-10-04T02:28:08.149Z,0
2022-10-04T02:29:08.076Z,0
2022-10-04T02:30:08.095Z,0
2022-10-04T02:31:08.140Z,0
2022-10-04T02:32:08.079Z,0
2022-10-04T02:33:08.071Z,0
2022-10-04T02:34:08.075Z,0
2022-10-04T02:35:08.085Z,0
2022-10-04T02:36:08.085Z,0
2022-10-04T02:37:08.084Z,0
2022-10-04T02:38:08.079Z,0
2022-10-04T02:39:08.081Z,0
2022-10-04T02:40:08.081Z,0
2022-10-04T02:41:08.077Z,0
2022-10-04T02:42:08.081Z,0
2022-10-04T02:43:08.083Z,0
2022-10-04T02:44:08.081Z,0
2022-10-04T02:45:08.083Z,0
2022-10-04T02:46:08.128Z,0
2022-10-04T02:47:08.084Z,0
2022-10-04T02:48:08.077Z,0
2022-10-04T02:49:08.090Z,0
2022-10-04T02:50:08.079Z,0
2022-10-04T02:51:08.083Z,0
2022-10-04T02:52:08.085Z,0
2022-10-04T02:53:08.081Z,0
2022-10-04T02:54:08.081Z,0
2022-10-04T02:55:08.091Z,0
2022-10-04T02:56:08.078Z,0
2022-10-04T02:57:08.081Z,0
2022-10-04T02:58:08.081Z,0
2022-10-04T02:59:08.086Z,0
2022-10-04T03:00:08.086Z,0
2022-10-04T03:01:08.112Z,0
2022-10-04T03:02:08.183Z,0
2022-10-04T03:03:08.084Z,0
2022-10-04T03:04:08.085Z,0
2022-10-04T03:05:08.088Z,0
2022-10-04T03:06:08.084Z,0
2022-10-04T03:07:08.109Z,0
2022-10-04T03:08:08.094Z,0
2022-10-04T03:09:08.084Z,0
2022-10-04T03:10:08.079Z,0
2022-10-04T03:11:08.087Z,0
2022-10-04T03:12:08.084Z,0
2022-10-04T03:13:08.084Z,0
2022-10-04T03:14:08.093Z,0
2022-10-04T03:15:08.083Z,0
2022-10-04T03:16:08.158Z,0
2022-10-04T03:17:08.088Z,0
2022-10-04T03:18:08.112Z,0
2022-10-04T03:19:08.097Z,0
2022-10-04T03:20:08.098Z,0
2022-10-04T03:21:08.095Z,0
2022-10-04T03:22:08.100Z,0
2022-10-04T03:23:08.099Z,0
2022-10-04T03:24:08.097Z,0
2022-10-04T03:25:08.100Z,0
2022-10-04T03:26:08.093Z,0
2022-10-04T03:27:08.106Z,0
2022-10-04T03:28:08.146Z,0
2022-10-04T03:29:08.101Z,0
2022-10-04T03:30:08.103Z,0
2022-10-04T03:31:08.281Z,0
2022-10-04T03:32:08.104Z,0
2022-10-04T03:33:08.102Z,0
2022-10-04T03:34:08.131Z,0
2022-10-04T03:35:08.106Z,0
2022-10-04T03:36:08.105Z,0
2022-10-04T03:37:08.102Z,0
2022-10-04T03:38:08.106Z,0
2022-10-04T03:39:08.102Z,0
2022-10-04T03:40:08.109Z,0
2022-10-04T03:41:08.103Z,0
2022-10-04T03:42:08.109Z,0
2022-10-04T03:43:08.107Z,0
2022-10-04T03:44:08.106Z,0
2022-10-04T03:45:08.108Z,0
2022-10-04T03:46:08.147Z,0
2022-10-04T03:47:08.095Z,0
2022-10-04T03:48:08.115Z,0
2022-10-04T03:49:08.114Z,0
2022-10-04T03:50:08.140Z,0
2022-10-04T03:51:08.111Z,0
2022-10-04T03:52:08.114Z,0
2022-10-04T03:53:08.106Z,0
2022-10-04T03:54:08.112Z,0
2022-10-04T03:55:08.113Z,0
2022-10-04T03:56:08.104Z,0
2022-10-04T03:57:08.116Z,0
2022-10-04T03:58:08.114Z,0
2022-10-04T03:59:08.132Z,0
2022-10-04T04:00:08.136Z,0
2022-10-04T04:01:08.144Z,0
2022-10-04T04:02:08.173Z,0
2022-10-04T04:03:08.126Z,0
2022-10-04T04:04:08.124Z,0
2022-10-04T04:05:08.119Z,0
2022-10-04T04:06:08.241Z,0
2022-10-04T04:07:08.117Z,0
2022-10-04T04:08:08.124Z,0
2022-10-04T04:09:08.120Z,0
2022-10-04T04:10:08.975Z,0
2022-10-04T04:11:08.126Z,0
2022-10-04T04:12:08.125Z,0
2022-10-04T04:13:08.119Z,0
2022-10-04T04:14:08.127Z,0
2022-10-04T04:15:08.125Z,0
2022-10-04T04:16:08.149Z,0
2022-10-04T04:17:08.120Z,0
2022-10-04T04:18:08.131Z,0
2022-10-04T04:19:08.123Z,0
2022-10-04T04:20:08.132Z,0
2022-10-04T04:21:08.119Z,0
2022-10-04T04:22:08.157Z,0
2022-10-04T04:23:08.127Z,0
2022-10-04T04:24:08.122Z,0
2022-10-04T04:25:08.132Z,0
2022-10-04T04:26:08.130Z,0
2022-10-04T04:27:08.123Z,0
2022-10-04T04:28:08.152Z,0
2022-10-04T04:29:08.125Z,0
2022-10-04T04:30:08.137Z,0
2022-10-04T04:31:08.144Z,0
2022-10-04T04:32:08.206Z,0
2022-10-04T04:33:08.136Z,0
2022-10-04T04:34:08.133Z,0
2022-10-04T04:35:08.143Z,0
2022-10-04T04:36:08.141Z,0
2022-10-04T04:37:08.139Z,0
2022-10-04T04:38:08.176Z,0
2022-10-04T04:39:08.131Z,0
2022-10-04T04:40:08.144Z,0
2022-10-04T04:41:08.131Z,0
2022-10-04T04:42:08.129Z,0
2022-10-04T04:43:08.148Z,0
2022-10-04T04:44:08.146Z,0
2022-10-04T04:45:08.143Z,0
2022-10-04T04:46:26.432Z,0
2022-10-04T04:47:08.150Z,0
2022-10-04T04:48:08.149Z,0
2022-10-04T04:49:08.149Z,0
2022-10-04T04:50:08.151Z,0
2022-10-04T04:51:08.141Z,0
2022-10-04T04:52:08.152Z,0
2022-10-04T04:53:08.156Z,0
2022-10-04T04:54:08.252Z,0
2022-10-04T04:55:08.145Z,0
2022-10-04T04:56:10.568Z,0
2022-10-04T04:57:08.149Z,0
2022-10-04T04:58:08.142Z,0
2022-10-04T04:59:08.154Z,0
2022-10-04T05:00:08.145Z,0
2022-10-04T05:01:08.187Z,0
2022-10-04T05:02:08.229Z,0
2022-10-04T05:03:08.147Z,0
2022-10-04T05:04:08.155Z,0
2022-10-04T05:05:08.145Z,0
2022-10-04T05:06:08.153Z,0
2022-10-04T05:07:08.149Z,0
2022-10-04T05:08:08.155Z,0
2022-10-04T05:09:08.150Z,0
2022-10-04T05:10:08.180Z,0
2022-10-04T05:11:08.152Z,0
2022-10-04T05:12:08.154Z,0
2022-10-04T05:13:08.164Z,0
2022-10-04T05:14:08.158Z,0
2022-10-04T05:15:09.259Z,0
2022-10-04T05:16:08.192Z,0
2022-10-04T05:17:08.160Z,0
2022-10-04T05:18:08.154Z,0
2022-10-04T05:19:08.161Z,0
2022-10-04T05:20:08.161Z,0
2022-10-04T05:21:08.166Z,0
2022-10-04T05:22:08.182Z,0
2022-10-04T05:23:08.160Z,0
2022-10-04T05:24:08.154Z,0
2022-10-04T05:25:08.165Z,0
2022-10-04T05:26:08.198Z,0
2022-10-04T05:27:08.167Z,0
2022-10-04T05:28:08.203Z,0
2022-10-04T05:29:08.165Z,0
2022-10-04T05:30:08.167Z,0
2022-10-04T05:31:08.167Z,0
2022-10-04T05:32:08.199Z,0
2022-10-04T05:33:08.167Z,0
2022-10-04T05:34:08.168Z,0
2022-10-04T05:35:08.168Z,0
2022-10-04T05:36:08.164Z,0
2022-10-04T05:37:08.175Z,0
2022-10-04T05:38:08.166Z,0
2022-10-04T05:39:08.174Z,0
2022-10-04T05:40:08.170Z,0
2022-10-04T05:41:08.170Z,0
2022-10-04T05:42:08.198Z,0
2022-10-04T05:43:08.161Z,0
2022-10-04T05:44:08.167Z,0
2022-10-04T05:45:08.172Z,0
2022-10-04T05:46:08.274Z,0
2022-10-04T05:47:08.168Z,0
2022-10-04T05:48:08.175Z,0
2022-10-04T05:49:08.173Z,0
2022-10-04T05:50:08.160Z,0
2022-10-04T05:51:08.171Z,0
2022-10-04T05:52:08.172Z,0
2022-10-04T05:53:08.172Z,0
2022-10-04T05:54:08.169Z,0
2022-10-04T05:55:08.176Z,0
2022-10-04T05:56:08.170Z,0
2022-10-04T05:57:08.172Z,0
2022-10-04T05:58:08.197Z,0
2022-10-04T05:59:08.168Z,0
2022-10-04T06:00:08.161Z,0
2022-10-04T06:01:08.236Z,0
2022-10-04T06:02:08.226Z,0
2022-10-04T06:03:08.168Z,0
2022-10-04T06:04:08.184Z,0
2022-10-04T06:05:08.177Z,0
2022-10-04T06:06:08.171Z,0
2022-10-04T06:07:08.165Z,0
2022-10-04T06:08:08.181Z,0
2022-10-04T06:09:08.179Z,0
2022-10-04T06:10:08.175Z,0
2022-10-04T06:11:08.174Z,0
2022-10-04T06:12:08.177Z,0
2022-10-04T06:13:08.172Z,0
2022-10-04T06:14:08.197Z,0
2022-10-04T06:15:08.181Z,0
2022-10-04T06:16:08.180Z,0
2022-10-04T06:17:08.258Z,0
2022-10-04T06:18:08.175Z,0
2022-10-04T06:19:08.182Z,0
2022-10-04T06:20:08.184Z,0
2022-10-04T06:21:08.183Z,0
2022-10-04T06:22:08.183Z,0
2022-10-04T06:23:08.188Z,0
2022-10-04T06:24:08.182Z,0
2022-10-04T06:25:08.189Z,0
2022-10-04T06:26:08.183Z,0
2022-10-04T06:27:08.179Z,0
2022-10-04T06:28:08.219Z,0
2022-10-04T06:29:08.191Z,0
2022-10-04T06:30:08.214Z,0
2022-10-04T06:31:08.258Z,0
2022-10-04T06:32:08.190Z,0
2022-10-04T06:33:08.192Z,0
2022-10-04T06:34:08.191Z,0
2022-10-04T06:35:08.194Z,0
2022-10-04T06:36:08.202Z,0
2022-10-04T06:37:08.196Z,0
2022-10-04T06:38:08.186Z,0
2022-10-04T06:39:08.182Z,0
2022-10-04T06:40:08.187Z,0
2022-10-04T06:41:08.191Z,0
2022-10-04T06:42:08.198Z,0
2022-10-04T06:43:08.196Z,0
2022-10-04T06:44:08.199Z,0
2022-10-04T06:45:08.192Z,0
2022-10-04T06:46:08.243Z,0
2022-10-04T06:47:08.197Z,0
2022-10-04T06:48:08.211Z,0
2022-10-04T06:49:08.199Z,0
2022-10-04T06:50:08.206Z,0
2022-10-04T06:51:08.199Z,0
2022-10-04T06:52:08.199Z,0
2022-10-04T06:53:08.216Z,0
2022-10-04T06:54:08.197Z,0
2022-10-04T06:55:08.203Z,0
2022-10-04T06:56:08.213Z,0
2022-10-04T06:57:08.206Z,0
2022-10-04T06:58:08.212Z,0
2022-10-04T06:59:08.205Z,0
2022-10-04T07:00:08.204Z,0
2022-10-04T07:01:08.279Z,0
2022-10-04T07:02:08.280Z,0
2022-10-04T07:03:08.212Z,0
2022-10-04T07:04:08.212Z,0
2022-10-04T07:05:09.258Z,0
2022-10-04T07:06:08.212Z,0
2022-10-04T07:07:08.216Z,0
2022-10-04T07:08:08.217Z,0
2022-10-04T07:09:08.222Z,0
2022-10-04T07:10:08.217Z,0
2022-10-04T07:11:11.600Z,0
2022-10-04T07:12:08.217Z,0
2022-10-04T07:13:08.221Z,0
2022-10-04T07:14:08.224Z,0
2022-10-04T07:15:08.214Z,0
2022-10-04T07:16:08.312Z,0
2022-10-04T07:17:08.221Z,0
2022-10-04T07:18:08.246Z,0
2022-10-04T07:19:08.227Z,0
2022-10-04T07:20:08.231Z,0
2022-10-04T07:21:08.226Z,0
2022-10-04T07:22:08.261Z,0
2022-10-04T07:23:08.214Z,0
2022-10-04T07:24:08.229Z,0
2022-10-04T07:25:08.226Z,0
2022-10-04T07:26:08.221Z,0
2022-10-04T07:27:08.224Z,0
2022-10-04T07:28:08.291Z,0
2022-10-04T07:29:08.223Z,0
2022-10-04T07:30:08.226Z,0
2022-10-04T07:31:08.270Z,0
2022-10-04T07:32:08.234Z,0
2022-10-04T07:33:08.243Z,0
2022-10-04T07:34:08.253Z,0
2022-10-04T07:35:08.231Z,0
2022-10-04T07:36:08.245Z,0
2022-10-04T07:37:08.229Z,0
2022-10-04T07:38:08.237Z,0
2022-10-04T07:39:08.230Z,0
2022-10-04T07:40:08.231Z,0
2022-10-04T07:41:08.237Z,0
2022-10-04T07:42:08.241Z,0
2022-10-04T07:43:08.263Z,5.300000000000001
2022-10-04T07:44:08.240Z,1.4000000000000001
2022-10-04T07:45:08.235Z,0
2022-10-04T07:46:08.301Z,4.4
2022-10-04T07:47:08.233Z,5.300000000000001
2022-10-04T07:48:08.243Z,4.6000000000000005
2022-10-04T07:49:08.242Z,2
2022-10-04T07:50:08.265Z,4.7
2022-10-04T07:51:08.242Z,1.6
2022-10-04T07:52:08.246Z,2.1
2022-10-04T07:53:09.581Z,0
2022-10-04T07:54:08.244Z,0
2022-10-04T07:55:08.238Z,0
2022-10-04T07:56:08.237Z,0
2022-10-04T07:57:08.239Z,0
2022-10-04T07:58:08.252Z,0
2022-10-04T07:59:08.248Z,0
2022-10-04T08:00:08.245Z,0
2022-10-04T08:01:08.249Z,3.3000000000000003
2022-10-04T08:02:08.325Z,4.5
2022-10-04T08:03:08.301Z,4.7
2022-10-04T08:04:08.252Z,1.4000000000000001
2022-10-04T08:05:08.252Z,0
2022-10-04T08:06:08.272Z,0
2022-10-04T08:07:08.254Z,0
2022-10-04T08:08:08.258Z,0
2022-10-04T08:09:08.252Z,0
2022-10-04T08:10:08.890Z,0
2022-10-04T08:11:08.254Z,0
2022-10-04T08:12:08.261Z,0
2022-10-04T08:13:08.257Z,0
2022-10-04T08:14:08.260Z,0
2022-10-04T08:15:08.252Z,0
2022-10-04T08:16:08.271Z,0
2022-10-04T08:17:10.791Z,0
2022-10-04T08:18:08.256Z,0
2022-10-04T08:19:08.254Z,1.4000000000000001
2022-10-04T08:20:08.246Z,4.1000000000000005
2022-10-04T08:21:08.263Z,4.800000000000001
2022-10-04T08:22:08.281Z,4
2022-10-04T08:23:08.257Z,0
2022-10-04T08:24:08.284Z,0
2022-10-04T08:25:08.261Z,0
2022-10-04T08:26:08.268Z,0
2022-10-04T08:27:08.251Z,0
2022-10-04T08:28:08.315Z,0
2022-10-04T08:29:08.275Z,0
2022-10-04T08:30:08.265Z,0
2022-10-04T08:31:08.303Z,0
2022-10-04T08:32:08.269Z,0
2022-10-04T08:33:08.271Z,0
2022-10-04T08:34:08.299Z,0
2022-10-04T08:35:08.273Z,0
2022-10-04T08:36:08.268Z,0
2022-10-04T08:37:08.274Z,0
2022-10-04T08:38:08.295Z,0
2022-10-04T08:39:08.271Z,0
2022-10-04T08:40:12.105Z,0
2022-10-04T08:41:08.270Z,0
2022-10-04T08:42:08.277Z,0
2022-10-04T08:43:08.275Z,0
2022-10-04T08:44:08.271Z,0
2022-10-04T08:45:08.270Z,0
2022-10-04T08:46:08.404Z,0
2022-10-04T08:47:08.272Z,0
2022-10-04T08:48:08.271Z,0
2022-10-04T08:49:08.281Z,0
2022-10-04T08:50:08.281Z,0
2022-10-04T08:51:08.279Z,0
2022-10-04T08:52:08.282Z,0
2022-10-04T08:53:10.888Z,0
2022-10-04T08:54:08.306Z,0
2022-10-04T08:55:08.274Z,0
2022-10-04T08:56:08.275Z,0
2022-10-04T08:57:11.215Z,0
2022-10-04T08:58:08.282Z,0
2022-10-04T08:59:08.283Z,0
2022-10-04T09:00:08.290Z,0
2022-10-04T09:01:08.300Z,0
2022-10-04T09:02:08.334Z,0
2022-10-04T09:03:08.403Z,0
2022-10-04T09:04:08.291Z,0
2022-10-04T09:05:08.283Z,0
2022-10-04T09:06:08.290Z,0
2022-10-04T09:07:08.286Z,0
2022-10-04T09:08:08.286Z,0
2022-10-04T09:09:08.276Z,0
2022-10-04T09:10:08.308Z,0
2022-10-04T09:11:08.297Z,0
2022-10-04T09:12:08.291Z,0
2022-10-04T09:13:08.292Z,0
2022-10-04T09:14:08.284Z,0
2022-10-04T09:15:08.292Z,0
2022-10-04T09:16:08.387Z,0
2022-10-04T09:17:08.317Z,0
2022-10-04T09:18:08.287Z,0
2022-10-04T09:19:08.291Z,0
2022-10-04T09:20:26.582Z,0.8
2022-10-04T09:21:08.300Z,4.4
2022-10-04T09:22:08.299Z,2.3000000000000003
2022-10-04T09:23:08.292Z,1.1
2022-10-04T09:24:08.299Z,1
2022-10-04T09:25:08.303Z,3.8000000000000003
2022-10-04T09:26:08.446Z,4.7
2022-10-04T09:27:08.297Z,1
2022-10-04T09:28:08.336Z,3.9000000000000004
2022-10-04T09:29:08.298Z,3.1
2022-10-04T09:30:08.302Z,0.6000000000000001
2022-10-04T09:31:08.367Z,0
2022-10-04T09:32:08.293Z,0
2022-10-04T09:33:08.295Z,3.8000000000000003
2022-10-04T09:34:08.305Z,0.7000000000000001
2022-10-04T09:35:08.309Z,0
2022-10-04T09:36:08.307Z,0.8
2022-10-04T09:37:08.298Z,0.8
2022-10-04T09:38:08.310Z,2.1
2022-10-04T09:39:28.762Z,2.1
2022-10-04T09:40:08.306Z,0
2022-10-04T09:41:08.301Z,4
2022-10-04T09:42:08.328Z,4.6000000000000005
2022-10-04T09:43:08.310Z,5.300000000000001
2022-10-04T09:44:08.313Z,2.7
2022-10-04T09:45:08.303Z,2
2022-10-04T09:46:08.367Z,0.7000000000000001
2022-10-04T09:47:08.309Z,0
2022-10-04T09:48:08.311Z,0
2022-10-04T09:49:08.313Z,0
2022-10-04T09:50:08.311Z,1.7000000000000002
2022-10-04T09:51:08.369Z,0
2022-10-04T09:52:08.315Z,0
2022-10-04T09:53:08.322Z,4.6000000000000005
2022-10-04T09:54:08.335Z,0
2022-10-04T09:55:08.311Z,0
2022-10-04T09:56:08.317Z,0
2022-10-04T09:57:08.309Z,0
2022-10-04T09:58:08.430Z,0
2022-10-04T09:59:08.322Z,0
2022-10-04T10:00:08.324Z,0
2022-10-04T10:01:08.311Z,0
2022-10-04T10:02:08.412Z,0
2022-10-04T10:03:10.982Z,0
2022-10-04T10:04:08.317Z,0
2022-10-04T10:05:08.317Z,0
2022-10-04T10:06:08.316Z,0
2022-10-04T10:07:08.314Z,0
2022-10-04T10:08:08.321Z,0
2022-10-04T10:09:08.306Z,0
2022-10-04T10:10:08.315Z,0
2022-10-04T10:11:08.312Z,3.2
2022-10-04T10:12:08.325Z,7.300000000000001
2022-10-04T10:13:08.317Z,2.9000000000000004
2022-10-04T10:14:08.332Z,3.6
2022-10-04T10:15:08.311Z,0
2022-10-04T10:16:08.348Z,1.9000000000000001
2022-10-04T10:17:08.319Z,4.4
2022-10-04T10:18:08.329Z,1.9000000000000001
2022-10-04T10:19:08.314Z,4.7
2022-10-04T10:20:08.318Z,4.9
2022-10-04T10:21:08.320Z,2.7
2022-10-04T10:22:08.322Z,5.7
2022-10-04T10:23:08.311Z,5.300000000000001
2022-10-04T10:24:08.345Z,3.8000000000000003
2022-10-04T10:25:08.323Z,2.1
2022-10-04T10:26:08.323Z,4.2
2022-10-04T10:27:08.323Z,4.2
2022-10-04T10:28:08.352Z,3.2
2022-10-04T10:29:08.323Z,2.8000000000000003
2022-10-04T10:30:08.344Z,1.7000000000000002
2022-10-04T10:31:08.344Z,2.4000000000000004
2022-10-04T10:32:08.352Z,4.5
2022-10-04T10:33:08.318Z,1.7000000000000002
2022-10-04T10:34:08.331Z,0.30000000000000004
2022-10-04T10:35:08.323Z,0
2022-10-04T10:36:08.327Z,0
2022-10-04T10:37:08.327Z,0
2022-10-04T10:38:08.326Z,2.8000000000000003
2022-10-04T10:39:08.321Z,7.300000000000001
2022-10-04T10:40:08.332Z,4
2022-10-04T10:41:08.327Z,2.9000000000000004
2022-10-04T10:42:08.335Z,2.4000000000000004
2022-10-04T10:43:08.326Z,3
2022-10-04T10:44:08.330Z,3.5
2022-10-04T10:45:08.335Z,2.1
2022-10-04T10:46:08.510Z,1.3
2022-10-04T10:47:08.336Z,0
2022-10-04T10:48:08.335Z,0
2022-10-04T10:49:08.344Z,0
2022-10-04T10:50:08.337Z,3.6
2022-10-04T10:51:08.337Z,2.2
2022-10-04T10:52:08.333Z,2.6
2022-10-04T10:53:08.340Z,0
2022-10-04T10:54:08.338Z,3.5
2022-10-04T10:55:08.342Z,0
2022-10-04T10:56:08.336Z,0.8
2022-10-04T10:57:08.334Z,0
2022-10-04T10:58:08.344Z,0
2022-10-04T10:59:08.340Z,0.5
2022-10-04T11:00:08.335Z,2.9000000000000004
2022-10-04T11:01:08.344Z,0
2022-10-04T11:02:08.483Z,0
2022-10-04T11:03:13.411Z,0
2022-10-04T11:04:08.493Z,3.2
2022-10-04T11:05:08.341Z,5.7
2022-10-04T11:06:08.351Z,5
2022-10-04T11:07:08.350Z,3.1
2022-10-04T11:08:08.343Z,2
2022-10-04T11:09:08.346Z,0
2022-10-04T11:10:08.351Z,3.4000000000000004
2022-10-04T11:11:08.339Z,4.7
2022-10-04T11:12:08.347Z,3.2
2022-10-04T11:13:08.345Z,2.5
2022-10-04T11:14:08.349Z,0
2022-10-04T11:15:08.340Z,0
2022-10-04T11:16:08.403Z,0
2022-10-04T11:17:08.351Z,0
2022-10-04T11:18:08.359Z,0
2022-10-04T11:19:08.353Z,0
2022-10-04T11:20:08.356Z,0
2022-10-04T11:21:08.352Z,0
2022-10-04T11:22:08.367Z,0
2022-10-04T11:23:08.354Z,0
2022-10-04T11:24:08.356Z,0
2022-10-04T11:25:08.367Z,0
2022-10-04T11:26:08.345Z,0
2022-10-04T11:27:08.353Z,0
2022-10-04T11:28:08.393Z,0
2022-10-04T11:29:08.352Z,0
2022-10-04T11:30:08.364Z,0
2022-10-04T11:31:08.420Z,0
2022-10-04T11:32:08.361Z,0
2022-10-04T11:33:08.366Z,0
2022-10-04T11:34:09.153Z,0
2022-10-04T11:35:08.360Z,0
2022-10-04T11:36:08.373Z,0
2022-10-04T11:37:08.372Z,0
2022-10-04T11:38:08.370Z,0
2022-10-04T11:39:08.374Z,0
2022-10-04T11:40:08.366Z,0
2022-10-04T11:41:08.366Z,3.4000000000000004
2022-10-04T11:42:08.380Z,3.7
2022-10-04T11:43:08.387Z,0
2022-10-04T11:44:08.374Z,0
2022-10-04T11:45:08.371Z,0
2022-10-04T11:46:10.815Z,0
2022-10-04T11:47:08.439Z,0
2022-10-04T11:48:08.378Z,0
2022-10-04T11:49:08.378Z,0
2022-10-04T11:50:08.489Z,0
2022-10-04T11:51:08.373Z,0
2022-10-04T11:52:08.373Z,0
2022-10-04T11:53:08.376Z,0
2022-10-04T11:54:08.377Z,0
2022-10-04T11:55:08.381Z,0
2022-10-04T11:56:08.380Z,0
2022-10-04T11:57:08.381Z,0
2022-10-04T11:58:11.856Z,0
2022-10-04T11:59:08.381Z,0
2022-10-04T12:00:08.406Z,0
2022-10-04T12:01:08.380Z,0
2022-10-04T12:02:08.387Z,0
2022-10-04T12:03:08.434Z,0
2022-10-04T12:04:08.426Z,0
2022-10-04T12:05:08.390Z,0
2022-10-04T12:06:08.423Z,0
2022-10-04T12:07:08.419Z,0
2022-10-04T12:08:08.425Z,0
2022-10-04T12:09:08.396Z,0
2022-10-04T12:10:08.501Z,0
2022-10-04T12:11:08.391Z,0
2022-10-04T12:12:08.391Z,0
2022-10-04T12:13:08.389Z,0
2022-10-04T12:14:08.398Z,0
2022-10-04T12:15:08.434Z,5
2022-10-04T12:16:08.456Z,2.6
2022-10-04T12:17:08.399Z,3.6
2022-10-04T12:18:08.407Z,0
2022-10-04T12:19:08.399Z,3.7
2022-10-04T12:20:11.960Z,3.3000000000000003
2022-10-04T12:21:08.400Z,4
2022-10-04T12:22:08.424Z,1.3
2022-10-04T12:23:08.404Z,2.8000000000000003
2022-10-04T12:24:08.401Z,0
2022-10-04T12:25:08.401Z,1
2022-10-04T12:26:08.395Z,0
2022-10-04T12:27:08.397Z,0
2022-10-04T12:28:08.473Z,0
2022-10-04T12:29:08.411Z,0
2022-10-04T12:30:08.400Z,0
2022-10-04T12:31:08.449Z,0
2022-10-04T12:32:08.408Z,1
2022-10-04T12:33:08.412Z,0
2022-10-04T12:34:08.416Z,4
2022-10-04T12:35:08.412Z,0.7000000000000001
2022-10-04T12:36:08.412Z,1.7000000000000002
2022-10-04T12:37:08.414Z,0.6000000000000001
2022-10-04T12:38:08.435Z,3.7
2022-10-04T12:39:08.415Z,4.4
2022-10-04T12:40:08.419Z,2.2
2022-10-04T12:41:08.417Z,0
2022-10-04T12:42:08.424Z,0
2022-10-04T12:43:08.418Z,0
2022-10-04T12:44:08.413Z,0
2022-10-04T12:45:08.414Z,0
2022-10-04T12:46:08.478Z,0
2022-10-04T12:47:08.423Z,0
2022-10-04T12:48:08.441Z,0
2022-10-04T12:49:08.425Z,0
2022-10-04T12:50:08.431Z,0
2022-10-04T12:51:08.425Z,0
2022-10-04T12:52:08.431Z,0
2022-10-04T12:53:08.425Z,0
2022-10-04T12:54:08.507Z,0
2022-10-04T12:55:08.422Z,0
2022-10-04T12:56:08.431Z,0
2022-10-04T12:57:08.427Z,0
2022-10-04T12:58:08.434Z,3.3000000000000003
2022-10-04T12:59:08.433Z,3.2
2022-10-04T13:00:08.425Z,0
2022-10-04T13:01:08.466Z,0
2022-10-04T13:02:08.455Z,0
2022-10-04T13:03:08.453Z,0
2022-10-04T13:04:08.436Z,0
2022-10-04T13:05:08.429Z,0
2022-10-04T13:06:08.435Z,0
2022-10-04T13:07:08.436Z,0
2022-10-04T13:08:08.437Z,1.5
2022-10-04T13:09:08.441Z,1.7000000000000002
2022-10-04T13:10:25.170Z,0
2022-10-04T13:11:08.441Z,0
2022-10-04T13:12:08.441Z,0
2022-10-04T13:13:08.438Z,0
2022-10-04T13:14:08.438Z,0
2022-10-04T13:15:08.439Z,3.1
2022-10-04T13:17:32.389Z,0
2022-10-04T13:18:08.441Z,0
2022-10-04T13:19:09.769Z,0
2022-10-04T13:20:08.442Z,2.7
2022-10-04T13:21:08.445Z,0
2022-10-04T13:22:08.440Z,3.2
2022-10-04T13:23:08.442Z,0
2022-10-04T13:24:08.443Z,1.8
2022-10-04T13:25:08.455Z,2.3000000000000003
2022-10-04T13:26:08.471Z,4.5
2022-10-04T13:27:08.448Z,5.9
2022-10-04T13:28:08.479Z,3.6
2022-10-04T13:29:08.450Z,1.8
2022-10-04T13:30:08.464Z,0
2022-10-04T13:31:08.482Z,1
2022-10-04T13:32:08.491Z,4.2
2022-10-04T13:33:08.457Z,5.4
2022-10-04T13:34:08.453Z,1.3
2022-10-04T13:35:08.458Z,3.5
2022-10-04T13:36:08.459Z,0
2022-10-04T13:37:08.453Z,0
2022-10-04T13:38:08.464Z,5.7
2022-10-04T13:39:08.456Z,4.800000000000001
2022-10-04T13:40:08.463Z,0
2022-10-04T13:41:08.465Z,0
2022-10-04T13:42:12.210Z,0
2022-10-04T13:43:08.462Z,0
2022-10-04T13:44:08.467Z,3.6
2022-10-04T13:45:08.458Z,2.6
2022-10-04T13:46:08.516Z,4.9
2022-10-04T13:47:08.462Z,0
2022-10-04T13:48:12.803Z,0
2022-10-04T13:49:08.467Z,2
2022-10-04T13:50:08.480Z,0
2022-10-04T13:51:08.466Z,0
2022-10-04T13:52:08.454Z,0
2022-10-04T13:53:08.474Z,0
2022-10-04T13:54:08.473Z,0
2022-10-04T13:55:08.465Z,3.9000000000000004
2022-10-04T13:56:08.471Z,0
2022-10-04T13:57:08.478Z,0
2022-10-04T13:58:08.506Z,0
2022-10-04T13:59:08.474Z,3.8000000000000003
2022-10-04T14:00:08.486Z,0
2022-10-04T14:01:08.503Z,0
2022-10-04T14:02:08.475Z,0
2022-10-04T14:03:08.533Z,0
2022-10-04T14:04:08.475Z,0
2022-10-04T14:05:10.541Z,2.9000000000000004
2022-10-04T14:06:08.482Z,0
2022-10-04T14:07:08.477Z,0
2022-10-04T14:08:08.481Z,0
2022-10-04T14:09:08.479Z,0
2022-10-04T14:10:08.490Z,0
2022-10-04T14:11:08.480Z,0